sensor_id;sensor_type;location;lat;lon;timestamp;temperature;humidity
15969;DHT22;8085;53.472;9.794;2023-06-05T00:00:16;11.90;1.00
15969;DHT22;8085;53.472;9.794;2023-06-05T00:02:43;11.90;1.00
15969;DHT22;8085;53.472;9.794;2023-06-05T00:05:10;11.80;1.00
15969;DHT22;8085;53.472;9.794;2023-06-05T00:07:36;11.60;3.20
15969;DHT22;8085;53.472;9.794;2023-06-05T00:10:07;11.60;19.50
15969;DHT22;8085;53.472;9.794;2023-06-05T00:12:34;11.70;31.60
15969;DHT22;8085;53.472;9.794;2023-06-05T00:15:01;11.60;29.00
15969;DHT22;8085;53.472;9.794;2023-06-05T00:17:28;11.60;31.00
15969;DHT22;8085;53.472;9.794;2023-06-05T00:19:56;11.60;28.40
15969;DHT22;8085;53.472;9.794;2023-06-05T00:22:25;11.60;36.80
15969;DHT22;8085;53.472;9.794;2023-06-05T00:24:52;11.60;37.10
15969;DHT22;8085;53.472;9.794;2023-06-05T00:27:20;11.50;37.80
15969;DHT22;8085;53.472;9.794;2023-06-05T00:29:48;11.40;45.00
15969;DHT22;8085;53.472;9.794;2023-06-05T00:32:15;11.40;51.40
15969;DHT22;8085;53.472;9.794;2023-06-05T00:34:41;11.40;50.90
15969;DHT22;8085;53.472;9.794;2023-06-05T00:37:08;11.40;57.30
15969;DHT22;8085;53.472;9.794;2023-06-05T00:39:37;11.30;55.00
15969;DHT22;8085;53.472;9.794;2023-06-05T00:42:04;11.30;52.90
15969;DHT22;8085;53.472;9.794;2023-06-05T00:44:32;11.30;60.60
15969;DHT22;8085;53.472;9.794;2023-06-05T00:46:59;11.30;66.00
15969;DHT22;8085;53.472;9.794;2023-06-05T00:49:26;11.30;72.70
15969;DHT22;8085;53.472;9.794;2023-06-05T00:51:54;11.30;68.60
15969;DHT22;8085;53.472;9.794;2023-06-05T00:54:21;11.30;67.10
15969;DHT22;8085;53.472;9.794;2023-06-05T00:56:48;11.30;62.80
15969;DHT22;8085;53.472;9.794;2023-06-05T00:59:18;11.30;58.30
15969;DHT22;8085;53.472;9.794;2023-06-05T01:01:46;11.30;60.40
15969;DHT22;8085;53.472;9.794;2023-06-05T01:04:14;11.30;58.20
15969;DHT22;8085;53.472;9.794;2023-06-05T01:06:41;11.30;55.90
15969;DHT22;8085;53.472;9.794;2023-06-05T01:09:09;11.20;47.80
15969;DHT22;8085;53.472;9.794;2023-06-05T01:11:43;11.20;53.20
15969;DHT22;8085;53.472;9.794;2023-06-05T01:14:14;11.20;56.80
15969;DHT22;8085;53.472;9.794;2023-06-05T01:16:48;11.20;56.30
15969;DHT22;8085;53.472;9.794;2023-06-05T01:19:17;11.20;56.10
15969;DHT22;8085;53.472;9.794;2023-06-05T01:21:45;11.20;55.30
15969;DHT22;8085;53.472;9.794;2023-06-05T01:24:13;11.10;53.50
15969;DHT22;8085;53.472;9.794;2023-06-05T01:26:48;11.10;49.00
15969;DHT22;8085;53.472;9.794;2023-06-05T01:29:24;11.10;50.50
15969;DHT22;8085;53.472;9.794;2023-06-05T01:31:56;11.00;46.10
15969;DHT22;8085;53.472;9.794;2023-06-05T01:34:24;11.00;37.60
15969;DHT22;8085;53.472;9.794;2023-06-05T01:36:52;10.90;46.50
15969;DHT22;8085;53.472;9.794;2023-06-05T01:39:23;10.80;52.50
15969;DHT22;8085;53.472;9.794;2023-06-05T01:41:52;10.80;57.70
15969;DHT22;8085;53.472;9.794;2023-06-05T01:44:19;10.80;70.80
15969;DHT22;8085;53.472;9.794;2023-06-05T01:46:46;10.80;73.60
15969;DHT22;8085;53.472;9.794;2023-06-05T01:49:13;10.80;76.40
15969;DHT22;8085;53.472;9.794;2023-06-05T01:51:40;10.80;81.70
15969;DHT22;8085;53.472;9.794;2023-06-05T01:54:07;10.90;85.00
15969;DHT22;8085;53.472;9.794;2023-06-05T01:56:35;10.80;86.20
15969;DHT22;8085;53.472;9.794;2023-06-05T01:59:02;10.80;84.60
15969;DHT22;8085;53.472;9.794;2023-06-05T02:01:33;10.80;79.90
15969;DHT22;8085;53.472;9.794;2023-06-05T02:04:00;10.80;80.00
15969;DHT22;8085;53.472;9.794;2023-06-05T02:06:32;10.70;84.40
15969;DHT22;8085;53.472;9.794;2023-06-05T02:09:07;10.80;87.10
15969;DHT22;8085;53.472;9.794;2023-06-05T02:11:36;10.80;90.00
15969;DHT22;8085;53.472;9.794;2023-06-05T02:14:03;10.70;86.10
15969;DHT22;8085;53.472;9.794;2023-06-05T02:16:31;10.70;86.70
15969;DHT22;8085;53.472;9.794;2023-06-05T02:18:58;10.70;80.80
15969;DHT22;8085;53.472;9.794;2023-06-05T02:21:29;10.60;83.30
15969;DHT22;8085;53.472;9.794;2023-06-05T02:23:58;10.60;85.30
15969;DHT22;8085;53.472;9.794;2023-06-05T02:26:25;10.60;83.50
15969;DHT22;8085;53.472;9.794;2023-06-05T02:28:53;10.50;86.10
15969;DHT22;8085;53.472;9.794;2023-06-05T02:31:21;10.50;85.60
15969;DHT22;8085;53.472;9.794;2023-06-05T02:33:50;10.40;86.50
15969;DHT22;8085;53.472;9.794;2023-06-05T02:36:17;10.50;87.40
15969;DHT22;8085;53.472;9.794;2023-06-05T02:38:45;10.40;90.20
15969;DHT22;8085;53.472;9.794;2023-06-05T02:41:15;10.40;91.10
15969;DHT22;8085;53.472;9.794;2023-06-05T02:43:42;10.40;91.50
15969;DHT22;8085;53.472;9.794;2023-06-05T02:46:10;10.30;92.30
15969;DHT22;8085;53.472;9.794;2023-06-05T02:48:37;10.30;92.40
15969;DHT22;8085;53.472;9.794;2023-06-05T02:51:04;10.30;91.30
15969;DHT22;8085;53.472;9.794;2023-06-05T02:53:32;10.20;91.10
15969;DHT22;8085;53.472;9.794;2023-06-05T02:55:59;10.20;91.20
15969;DHT22;8085;53.472;9.794;2023-06-05T02:58:27;10.20;92.00
15969;DHT22;8085;53.472;9.794;2023-06-05T03:00:55;10.20;92.40
15969;DHT22;8085;53.472;9.794;2023-06-05T03:03:29;10.10;92.40
15969;DHT22;8085;53.472;9.794;2023-06-05T03:05:57;10.10;92.70
15969;DHT22;8085;53.472;9.794;2023-06-05T03:08:30;10.10;93.30
15969;DHT22;8085;53.472;9.794;2023-06-05T03:10:57;10.10;94.00
15969;DHT22;8085;53.472;9.794;2023-06-05T03:13:24;10.10;94.50
15969;DHT22;8085;53.472;9.794;2023-06-05T03:15:51;10.00;93.20
15969;DHT22;8085;53.472;9.794;2023-06-05T03:18:19;10.00;94.60
15969;DHT22;8085;53.472;9.794;2023-06-05T03:20:47;10.00;97.70
15969;DHT22;8085;53.472;9.794;2023-06-05T03:23:15;10.00;99.50
15969;DHT22;8085;53.472;9.794;2023-06-05T03:25:42;9.90;99.50
15969;DHT22;8085;53.472;9.794;2023-06-05T03:28:09;9.90;98.30
15969;DHT22;8085;53.472;9.794;2023-06-05T03:30:36;9.90;99.90
15969;DHT22;8085;53.472;9.794;2023-06-05T03:33:04;9.90;99.90
15969;DHT22;8085;53.472;9.794;2023-06-05T03:35:31;10.00;99.90
15969;DHT22;8085;53.472;9.794;2023-06-05T03:38:00;10.00;99.90
15969;DHT22;8085;53.472;9.794;2023-06-05T03:40:26;10.00;99.90
15969;DHT22;8085;53.472;9.794;2023-06-05T03:42:53;10.10;99.90
15969;DHT22;8085;53.472;9.794;2023-06-05T03:45:20;10.10;99.90
15969;DHT22;8085;53.472;9.794;2023-06-05T03:47:48;10.10;99.90
15969;DHT22;8085;53.472;9.794;2023-06-05T03:50:15;10.20;99.90
15969;DHT22;8085;53.472;9.794;2023-06-05T03:52:42;10.20;99.90
15969;DHT22;8085;53.472;9.794;2023-06-05T03:55:10;10.20;99.90
15969;DHT22;8085;53.472;9.794;2023-06-05T03:57:38;10.20;99.90
15969;DHT22;8085;53.472;9.794;2023-06-05T04:00:07;10.10;99.90
15969;DHT22;8085;53.472;9.794;2023-06-05T04:02:36;10.10;99.90
15969;DHT22;8085;53.472;9.794;2023-06-05T04:05:03;10.20;99.90
15969;DHT22;8085;53.472;9.794;2023-06-05T04:07:30;10.20;99.90
15969;DHT22;8085;53.472;9.794;2023-06-05T04:09:57;10.20;99.90
15969;DHT22;8085;53.472;9.794;2023-06-05T04:12:25;10.20;99.90
15969;DHT22;8085;53.472;9.794;2023-06-05T04:14:52;10.30;99.90
15969;DHT22;8085;53.472;9.794;2023-06-05T04:17:19;10.30;99.90
15969;DHT22;8085;53.472;9.794;2023-06-05T04:19:46;10.40;99.90
15969;DHT22;8085;53.472;9.794;2023-06-05T04:22:12;10.40;99.90
15969;DHT22;8085;53.472;9.794;2023-06-05T04:24:39;10.40;99.90
15969;DHT22;8085;53.472;9.794;2023-06-05T04:27:07;10.40;99.90
15969;DHT22;8085;53.472;9.794;2023-06-05T04:29:35;10.40;99.90
15969;DHT22;8085;53.472;9.794;2023-06-05T04:32:02;10.40;99.90
15969;DHT22;8085;53.472;9.794;2023-06-05T04:34:29;10.50;99.90
15969;DHT22;8085;53.472;9.794;2023-06-05T04:36:56;10.70;99.90
15969;DHT22;8085;53.472;9.794;2023-06-05T04:39:23;11.10;99.90
15969;DHT22;8085;53.472;9.794;2023-06-05T04:41:50;11.30;99.90
15969;DHT22;8085;53.472;9.794;2023-06-05T04:44:17;11.80;99.90
15969;DHT22;8085;53.472;9.794;2023-06-05T04:46:46;12.30;99.90
15969;DHT22;8085;53.472;9.794;2023-06-05T04:49:13;12.60;15.20
15969;DHT22;8085;53.472;9.794;2023-06-05T04:51:41;12.50;1.00
15969;DHT22;8085;53.472;9.794;2023-06-05T04:54:09;12.40;1.00
15969;DHT22;8085;53.472;9.794;2023-06-05T04:56:36;12.30;1.00
15969;DHT22;8085;53.472;9.794;2023-06-05T04:59:04;12.20;1.00
15969;DHT22;8085;53.472;9.794;2023-06-05T05:01:31;12.00;1.00
15969;DHT22;8085;53.472;9.794;2023-06-05T05:03:59;12.00;5.60
15969;DHT22;8085;53.472;9.794;2023-06-05T05:06:26;11.90;25.80
15969;DHT22;8085;53.472;9.794;2023-06-05T05:08:53;11.90;32.50
15969;DHT22;8085;53.472;9.794;2023-06-05T05:11:20;11.90;51.30
15969;DHT22;8085;53.472;9.794;2023-06-05T05:13:47;11.90;57.80
15969;DHT22;8085;53.472;9.794;2023-06-05T05:16:14;12.10;69.70
15969;DHT22;8085;53.472;9.794;2023-06-05T05:18:43;12.20;62.60
15969;DHT22;8085;53.472;9.794;2023-06-05T05:21:11;12.30;58.70
15969;DHT22;8085;53.472;9.794;2023-06-05T05:23:38;12.40;33.10
15969;DHT22;8085;53.472;9.794;2023-06-05T05:26:07;12.50;21.50
15969;DHT22;8085;53.472;9.794;2023-06-05T05:28:34;12.70;24.50
15969;DHT22;8085;53.472;9.794;2023-06-05T05:31:00;12.90;14.50
15969;DHT22;8085;53.472;9.794;2023-06-05T05:33:28;13.20;3.60
15969;DHT22;8085;53.472;9.794;2023-06-05T05:35:55;13.40;1.00
15969;DHT22;8085;53.472;9.794;2023-06-05T05:38:23;13.60;1.00
15969;DHT22;8085;53.472;9.794;2023-06-05T05:40:50;13.70;1.00
15969;DHT22;8085;53.472;9.794;2023-06-05T05:43:17;13.80;1.00
15969;DHT22;8085;53.472;9.794;2023-06-05T05:45:44;13.80;1.00
15969;DHT22;8085;53.472;9.794;2023-06-05T05:48:11;14.00;1.00
15969;DHT22;8085;53.472;9.794;2023-06-05T05:50:37;14.00;1.00
15969;DHT22;8085;53.472;9.794;2023-06-05T05:53:04;14.30;1.00
15969;DHT22;8085;53.472;9.794;2023-06-05T05:55:33;14.50;1.00
15969;DHT22;8085;53.472;9.794;2023-06-05T05:58:00;14.40;1.00
15969;DHT22;8085;53.472;9.794;2023-06-05T06:00:26;14.40;1.00
15969;DHT22;8085;53.472;9.794;2023-06-05T06:02:54;14.60;1.00
15969;DHT22;8085;53.472;9.794;2023-06-05T06:05:20;14.80;1.00
15969;DHT22;8085;53.472;9.794;2023-06-05T06:07:47;15.00;1.00
15969;DHT22;8085;53.472;9.794;2023-06-05T06:10:14;15.10;99.90
15969;DHT22;8085;53.472;9.794;2023-06-05T06:12:43;15.20;99.90
15969;DHT22;8085;53.472;9.794;2023-06-05T06:15:10;15.30;99.90
15969;DHT22;8085;53.472;9.794;2023-06-05T06:17:38;15.50;99.90
15969;DHT22;8085;53.472;9.794;2023-06-05T06:20:06;15.60;99.90
15969;DHT22;8085;53.472;9.794;2023-06-05T06:22:35;15.80;12.60
15969;DHT22;8085;53.472;9.794;2023-06-05T06:25:02;16.00;1.00
15969;DHT22;8085;53.472;9.794;2023-06-05T06:27:29;15.90;1.00
15969;DHT22;8085;53.472;9.794;2023-06-05T06:29:57;15.80;1.00
15969;DHT22;8085;53.472;9.794;2023-06-05T06:32:24;15.80;1.00
15969;DHT22;8085;53.472;9.794;2023-06-05T06:34:51;15.70;99.90
15969;DHT22;8085;53.472;9.794;2023-06-05T06:37:20;15.80;98.10
15969;DHT22;8085;53.472;9.794;2023-06-05T06:39:47;15.80;1.00
15969;DHT22;8085;53.472;9.794;2023-06-05T06:42:14;15.90;1.00
15969;DHT22;8085;53.472;9.794;2023-06-05T06:44:41;16.00;1.00
15969;DHT22;8085;53.472;9.794;2023-06-05T06:47:10;16.00;1.00
15969;DHT22;8085;53.472;9.794;2023-06-05T06:49:37;15.90;1.00
15969;DHT22;8085;53.472;9.794;2023-06-05T06:52:05;16.00;99.90
15969;DHT22;8085;53.472;9.794;2023-06-05T06:54:31;16.10;20.40
15969;DHT22;8085;53.472;9.794;2023-06-05T06:56:59;16.20;1.00
15969;DHT22;8085;53.472;9.794;2023-06-05T06:59:26;16.20;1.00
15969;DHT22;8085;53.472;9.794;2023-06-05T07:02:11;16.20;99.90
15969;DHT22;8085;53.472;9.794;2023-06-05T07:04:39;16.30;1.00
15969;DHT22;8085;53.472;9.794;2023-06-05T07:07:08;16.30;1.00
15969;DHT22;8085;53.472;9.794;2023-06-05T07:09:36;16.50;1.00
15969;DHT22;8085;53.472;9.794;2023-06-05T07:12:03;16.70;99.90
15969;DHT22;8085;53.472;9.794;2023-06-05T07:14:32;16.70;99.90
15969;DHT22;8085;53.472;9.794;2023-06-05T07:17:00;16.90;99.90
15969;DHT22;8085;53.472;9.794;2023-06-05T07:19:28;16.90;99.90
15969;DHT22;8085;53.472;9.794;2023-06-05T07:21:55;17.10;1.00
15969;DHT22;8085;53.472;9.794;2023-06-05T07:24:23;17.30;1.00
15969;DHT22;8085;53.472;9.794;2023-06-05T07:26:51;17.40;1.00
15969;DHT22;8085;53.472;9.794;2023-06-05T07:29:18;17.50;99.90
15969;DHT22;8085;53.472;9.794;2023-06-05T07:31:47;17.60;1.00
15969;DHT22;8085;53.472;9.794;2023-06-05T07:34:14;17.90;1.00
15969;DHT22;8085;53.472;9.794;2023-06-05T07:36:44;18.00;99.90
15969;DHT22;8085;53.472;9.794;2023-06-05T07:39:11;18.10;99.90
15969;DHT22;8085;53.472;9.794;2023-06-05T07:41:38;18.30;1.00
15969;DHT22;8085;53.472;9.794;2023-06-05T07:44:07;18.30;99.90
15969;DHT22;8085;53.472;9.794;2023-06-05T07:46:34;18.20;1.00
15969;DHT22;8085;53.472;9.794;2023-06-05T07:49:01;18.60;1.00
15969;DHT22;8085;53.472;9.794;2023-06-05T07:51:28;18.90;1.00
15969;DHT22;8085;53.472;9.794;2023-06-05T07:53:56;19.00;99.90
15969;DHT22;8085;53.472;9.794;2023-06-05T07:56:23;19.00;1.00
15969;DHT22;8085;53.472;9.794;2023-06-05T07:58:51;19.10;1.00
15969;DHT22;8085;53.472;9.794;2023-06-05T08:01:18;19.40;1.00
15969;DHT22;8085;53.472;9.794;2023-06-05T08:03:46;19.60;99.90
15969;DHT22;8085;53.472;9.794;2023-06-05T08:06:13;19.80;99.90
15969;DHT22;8085;53.472;9.794;2023-06-05T08:08:41;19.90;1.00
15969;DHT22;8085;53.472;9.794;2023-06-05T08:11:09;20.20;1.00
15969;DHT22;8085;53.472;9.794;2023-06-05T08:13:37;20.50;99.90
15969;DHT22;8085;53.472;9.794;2023-06-05T08:16:04;20.30;1.00
15969;DHT22;8085;53.472;9.794;2023-06-05T08:18:30;20.50;99.90
15969;DHT22;8085;53.472;9.794;2023-06-05T08:20:57;20.50;1.00
15969;DHT22;8085;53.472;9.794;2023-06-05T08:23:24;20.80;99.90
15969;DHT22;8085;53.472;9.794;2023-06-05T08:25:51;21.00;99.90
15969;DHT22;8085;53.472;9.794;2023-06-05T08:28:20;21.20;1.00
15969;DHT22;8085;53.472;9.794;2023-06-05T08:30:47;21.10;99.90
15969;DHT22;8085;53.472;9.794;2023-06-05T08:33:14;21.20;98.30
15969;DHT22;8085;53.472;9.794;2023-06-05T08:35:42;21.20;99.90
15969;DHT22;8085;53.472;9.794;2023-06-05T08:38:08;21.10;99.90
15969;DHT22;8085;53.472;9.794;2023-06-05T08:40:36;21.40;1.00
15969;DHT22;8085;53.472;9.794;2023-06-05T08:43:05;21.70;42.90
15969;DHT22;8085;53.472;9.794;2023-06-05T08:45:33;21.90;1.00
15969;DHT22;8085;53.472;9.794;2023-06-05T08:48:01;21.90;1.00
15969;DHT22;8085;53.472;9.794;2023-06-05T08:50:29;21.70;1.00
15969;DHT22;8085;53.472;9.794;2023-06-05T08:52:58;21.60;1.00
15969;DHT22;8085;53.472;9.794;2023-06-05T08:55:26;21.90;1.00
15969;DHT22;8085;53.472;9.794;2023-06-05T08:57:53;22.00;1.00
15969;DHT22;8085;53.472;9.794;2023-06-05T09:00:21;22.40;1.00
15969;DHT22;8085;53.472;9.794;2023-06-05T09:02:50;22.60;1.00
15969;DHT22;8085;53.472;9.794;2023-06-05T09:05:17;22.90;99.90
15969;DHT22;8085;53.472;9.794;2023-06-05T09:07:44;23.10;99.80
15969;DHT22;8085;53.472;9.794;2023-06-05T09:10:25;23.00;1.00
15969;DHT22;8085;53.472;9.794;2023-06-05T09:12:53;23.30;1.00
15969;DHT22;8085;53.472;9.794;2023-06-05T09:15:24;23.60;1.00
15969;DHT22;8085;53.472;9.794;2023-06-05T09:18:09;23.40;1.00
15969;DHT22;8085;53.472;9.794;2023-06-05T09:20:38;23.30;1.00
15969;DHT22;8085;53.472;9.794;2023-06-05T09:23:21;23.20;1.00
15969;DHT22;8085;53.472;9.794;2023-06-05T09:25:50;23.20;1.00
15969;DHT22;8085;53.472;9.794;2023-06-05T09:28:18;23.40;1.00
15969;DHT22;8085;53.472;9.794;2023-06-05T09:30:58;23.60;1.00
15969;DHT22;8085;53.472;9.794;2023-06-05T09:33:28;23.80;1.00
15969;DHT22;8085;53.472;9.794;2023-06-05T09:36:05;24.10;1.00
15969;DHT22;8085;53.472;9.794;2023-06-05T09:38:32;24.10;1.00
15969;DHT22;8085;53.472;9.794;2023-06-05T09:41:07;24.10;1.00
15969;DHT22;8085;53.472;9.794;2023-06-05T09:43:35;24.00;99.90
15969;DHT22;8085;53.472;9.794;2023-06-05T09:46:07;24.10;99.90
15969;DHT22;8085;53.472;9.794;2023-06-05T09:48:35;24.40;99.90
15969;DHT22;8085;53.472;9.794;2023-06-05T09:51:10;24.70;99.90
15969;DHT22;8085;53.472;9.794;2023-06-05T09:53:41;25.10;99.90
15969;DHT22;8085;53.472;9.794;2023-06-05T09:56:10;24.80;99.90
15969;DHT22;8085;53.472;9.794;2023-06-05T09:58:38;24.40;99.90
15969;DHT22;8085;53.472;9.794;2023-06-05T10:01:07;23.70;99.90
15969;DHT22;8085;53.472;9.794;2023-06-05T10:03:36;23.80;99.90
15969;DHT22;8085;53.472;9.794;2023-06-05T10:06:05;23.90;99.90
15969;DHT22;8085;53.472;9.794;2023-06-05T10:08:34;24.30;99.90
15969;DHT22;8085;53.472;9.794;2023-06-05T10:11:01;24.50;99.90
15969;DHT22;8085;53.472;9.794;2023-06-05T10:13:28;24.30;99.90
15969;DHT22;8085;53.472;9.794;2023-06-05T10:15:55;24.70;99.90
15969;DHT22;8085;53.472;9.794;2023-06-05T10:18:22;24.80;99.90
15969;DHT22;8085;53.472;9.794;2023-06-05T10:20:52;25.00;99.90
15969;DHT22;8085;53.472;9.794;2023-06-05T10:23:20;25.20;99.90
15969;DHT22;8085;53.472;9.794;2023-06-05T10:25:48;25.40;99.90
15969;DHT22;8085;53.472;9.794;2023-06-05T10:28:26;25.50;99.90
15969;DHT22;8085;53.472;9.794;2023-06-05T10:31:19;25.40;99.90
15969;DHT22;8085;53.472;9.794;2023-06-05T10:34:03;25.50;99.90
15969;DHT22;8085;53.472;9.794;2023-06-05T10:37:01;25.90;99.90
15969;DHT22;8085;53.472;9.794;2023-06-05T10:39:31;26.20;99.90
15969;DHT22;8085;53.472;9.794;2023-06-05T10:42:00;25.70;99.90
15969;DHT22;8085;53.472;9.794;2023-06-05T10:44:38;25.70;99.90
15969;DHT22;8085;53.472;9.794;2023-06-05T10:50:23;25.40;99.90
15969;DHT22;8085;53.472;9.794;2023-06-05T10:52:54;25.70;99.90
15969;DHT22;8085;53.472;9.794;2023-06-05T10:55:23;25.80;99.90
15969;DHT22;8085;53.472;9.794;2023-06-05T11:03:53;26.30;99.90
15969;DHT22;8085;53.472;9.794;2023-06-05T11:06:21;26.50;97.30
15969;DHT22;8085;53.472;9.794;2023-06-05T11:09:11;26.50;96.10
15969;DHT22;8085;53.472;9.794;2023-06-05T11:11:58;26.60;99.90
15969;DHT22;8085;53.472;9.794;2023-06-05T11:14:43;26.70;92.40
15969;DHT22;8085;53.472;9.794;2023-06-05T11:17:29;26.60;95.70
15969;DHT22;8085;53.472;9.794;2023-06-05T11:19:56;26.90;81.00
15969;DHT22;8085;53.472;9.794;2023-06-05T11:22:23;27.00;49.80
15969;DHT22;8085;53.472;9.794;2023-06-05T11:25:27;27.10;45.50
15969;DHT22;8085;53.472;9.794;2023-06-05T11:27:57;27.30;49.40
15969;DHT22;8085;53.472;9.794;2023-06-05T11:30:28;27.40;34.20
15969;DHT22;8085;53.472;9.794;2023-06-05T11:32:58;27.50;34.20
15969;DHT22;8085;53.472;9.794;2023-06-05T11:35:34;27.60;26.30
15969;DHT22;8085;53.472;9.794;2023-06-05T11:38:08;27.50;10.60
15969;DHT22;8085;53.472;9.794;2023-06-05T11:40:38;27.00;1.00
15969;DHT22;8085;53.472;9.794;2023-06-05T11:43:06;27.00;6.60
15969;DHT22;8085;53.472;9.794;2023-06-05T11:45:34;27.10;18.50
15969;DHT22;8085;53.472;9.794;2023-06-05T11:48:05;27.00;15.70
15969;DHT22;8085;53.472;9.794;2023-06-05T11:50:32;26.40;12.30
15969;DHT22;8085;53.472;9.794;2023-06-05T11:53:05;26.50;14.50
15969;DHT22;8085;53.472;9.794;2023-06-05T11:55:32;26.60;14.60
15969;DHT22;8085;53.472;9.794;2023-06-05T11:58:10;26.30;24.80
15969;DHT22;8085;53.472;9.794;2023-06-05T12:00:37;26.50;23.90
15969;DHT22;8085;53.472;9.794;2023-06-05T12:03:04;26.50;21.40
15969;DHT22;8085;53.472;9.794;2023-06-05T12:05:31;26.80;16.60
15969;DHT22;8085;53.472;9.794;2023-06-05T12:10:40;26.30;1.10
15969;DHT22;8085;53.472;9.794;2023-06-05T12:13:07;26.70;12.10
15969;DHT22;8085;53.472;9.794;2023-06-05T12:15:35;26.90;10.50
15969;DHT22;8085;53.472;9.794;2023-06-05T12:18:02;27.00;8.80
15969;DHT22;8085;53.472;9.794;2023-06-05T12:20:38;26.80;6.60
15969;DHT22;8085;53.472;9.794;2023-06-05T12:23:06;27.10;6.50
15969;DHT22;8085;53.472;9.794;2023-06-05T12:25:33;27.30;5.40
15969;DHT22;8085;53.472;9.794;2023-06-05T12:28:00;27.50;1.00
15969;DHT22;8085;53.472;9.794;2023-06-05T12:30:40;27.50;1.00
15969;DHT22;8085;53.472;9.794;2023-06-05T12:33:07;27.80;1.00
15969;DHT22;8085;53.472;9.794;2023-06-05T12:35:35;27.90;1.00
15969;DHT22;8085;53.472;9.794;2023-06-05T12:38:02;28.10;1.00
15969;DHT22;8085;53.472;9.794;2023-06-05T12:40:29;28.00;1.00
15969;DHT22;8085;53.472;9.794;2023-06-05T12:42:56;27.80;1.00
15969;DHT22;8085;53.472;9.794;2023-06-05T12:45:23;27.40;1.00
15969;DHT22;8085;53.472;9.794;2023-06-05T12:47:51;27.60;1.00
15969;DHT22;8085;53.472;9.794;2023-06-05T12:50:18;27.80;1.00
15969;DHT22;8085;53.472;9.794;2023-06-05T12:52:45;27.70;1.00
15969;DHT22;8085;53.472;9.794;2023-06-05T12:55:12;27.70;1.00
15969;DHT22;8085;53.472;9.794;2023-06-05T12:57:39;27.60;1.00
15969;DHT22;8085;53.472;9.794;2023-06-05T13:00:07;27.60;1.00
15969;DHT22;8085;53.472;9.794;2023-06-05T13:02:38;27.50;1.00
15969;DHT22;8085;53.472;9.794;2023-06-05T13:05:07;27.40;1.00
15969;DHT22;8085;53.472;9.794;2023-06-05T13:07:34;27.20;1.00
15969;DHT22;8085;53.472;9.794;2023-06-05T13:10:04;27.50;1.00
15969;DHT22;8085;53.472;9.794;2023-06-05T13:12:31;27.50;1.00
15969;DHT22;8085;53.472;9.794;2023-06-05T13:14:57;27.60;1.00
15969;DHT22;8085;53.472;9.794;2023-06-05T13:17:25;27.70;1.00
15969;DHT22;8085;53.472;9.794;2023-06-05T13:19:52;27.50;1.00
15969;DHT22;8085;53.472;9.794;2023-06-05T13:22:21;27.60;1.00
15969;DHT22;8085;53.472;9.794;2023-06-05T13:24:48;27.60;1.00
15969;DHT22;8085;53.472;9.794;2023-06-05T13:27:15;27.30;1.00
15969;DHT22;8085;53.472;9.794;2023-06-05T13:29:42;27.50;1.00
15969;DHT22;8085;53.472;9.794;2023-06-05T13:32:09;27.40;1.00
15969;DHT22;8085;53.472;9.794;2023-06-05T13:34:36;27.60;1.00
15969;DHT22;8085;53.472;9.794;2023-06-05T13:37:03;27.00;1.00
15969;DHT22;8085;53.472;9.794;2023-06-05T13:39:31;27.20;1.00
15969;DHT22;8085;53.472;9.794;2023-06-05T13:41:58;27.40;1.00
15969;DHT22;8085;53.472;9.794;2023-06-05T13:44:27;27.60;1.00
15969;DHT22;8085;53.472;9.794;2023-06-05T13:46:56;27.90;1.00
15969;DHT22;8085;53.472;9.794;2023-06-05T13:49:22;27.90;1.00
15969;DHT22;8085;53.472;9.794;2023-06-05T13:51:49;27.70;1.00
15969;DHT22;8085;53.472;9.794;2023-06-05T13:54:16;27.90;1.00
15969;DHT22;8085;53.472;9.794;2023-06-05T13:56:44;28.00;1.00
15969;DHT22;8085;53.472;9.794;2023-06-05T13:59:11;28.20;1.00
15969;DHT22;8085;53.472;9.794;2023-06-05T14:01:38;28.20;1.00
15969;DHT22;8085;53.472;9.794;2023-06-05T14:04:05;28.10;1.00
15969;DHT22;8085;53.472;9.794;2023-06-05T14:06:32;27.90;1.00
15969;DHT22;8085;53.472;9.794;2023-06-05T14:09:02;28.10;1.00
15969;DHT22;8085;53.472;9.794;2023-06-05T14:11:29;28.10;1.00
15969;DHT22;8085;53.472;9.794;2023-06-05T14:13:57;27.80;1.00
15969;DHT22;8085;53.472;9.794;2023-06-05T14:16:25;27.50;1.00
15969;DHT22;8085;53.472;9.794;2023-06-05T14:18:52;27.20;1.00
15969;DHT22;8085;53.472;9.794;2023-06-05T14:21:19;27.00;1.00
15969;DHT22;8085;53.472;9.794;2023-06-05T14:23:45;26.90;1.00
15969;DHT22;8085;53.472;9.794;2023-06-05T14:26:12;27.10;1.00
15969;DHT22;8085;53.472;9.794;2023-06-05T14:28:39;27.10;1.00
15969;DHT22;8085;53.472;9.794;2023-06-05T14:31:07;27.20;1.00
15969;DHT22;8085;53.472;9.794;2023-06-05T14:33:34;27.20;1.00
15969;DHT22;8085;53.472;9.794;2023-06-05T14:36:01;27.10;1.00
15969;DHT22;8085;53.472;9.794;2023-06-05T14:38:29;26.90;1.00
15969;DHT22;8085;53.472;9.794;2023-06-05T14:40:56;26.90;1.00
15969;DHT22;8085;53.472;9.794;2023-06-05T14:43:23;27.10;1.00
15969;DHT22;8085;53.472;9.794;2023-06-05T14:45:50;27.00;1.00
15969;DHT22;8085;53.472;9.794;2023-06-05T14:48:19;26.90;1.00
15969;DHT22;8085;53.472;9.794;2023-06-05T14:50:45;26.90;1.00
15969;DHT22;8085;53.472;9.794;2023-06-05T14:53:12;27.00;1.00
15969;DHT22;8085;53.472;9.794;2023-06-05T14:55:39;27.10;1.00
15969;DHT22;8085;53.472;9.794;2023-06-05T14:58:06;27.10;1.00
15969;DHT22;8085;53.472;9.794;2023-06-05T15:00:35;27.20;1.00
15969;DHT22;8085;53.472;9.794;2023-06-05T15:03:02;27.10;1.00
15969;DHT22;8085;53.472;9.794;2023-06-05T15:05:31;27.20;1.00
15969;DHT22;8085;53.472;9.794;2023-06-05T15:07:58;27.10;1.00
15969;DHT22;8085;53.472;9.794;2023-06-05T15:10:25;27.00;1.00
15969;DHT22;8085;53.472;9.794;2023-06-05T15:12:53;27.20;1.00
15969;DHT22;8085;53.472;9.794;2023-06-05T15:15:23;27.00;1.00
15969;DHT22;8085;53.472;9.794;2023-06-05T15:17:53;27.10;1.00
15969;DHT22;8085;53.472;9.794;2023-06-05T15:20:24;27.00;1.00
15969;DHT22;8085;53.472;9.794;2023-06-05T15:22:53;26.90;1.00
15969;DHT22;8085;53.472;9.794;2023-06-05T15:25:24;26.80;1.00
15969;DHT22;8085;53.472;9.794;2023-06-05T15:28:01;26.90;1.00
15969;DHT22;8085;53.472;9.794;2023-06-05T15:30:28;26.70;1.00
15969;DHT22;8085;53.472;9.794;2023-06-05T15:32:57;26.70;1.00
15969;DHT22;8085;53.472;9.794;2023-06-05T15:35:33;26.50;1.00
15969;DHT22;8085;53.472;9.794;2023-06-05T15:38:01;26.50;1.00
15969;DHT22;8085;53.472;9.794;2023-06-05T15:40:28;26.40;1.00
15969;DHT22;8085;53.472;9.794;2023-06-05T15:43:06;26.60;1.00
15969;DHT22;8085;53.472;9.794;2023-06-05T15:45:33;26.60;1.00
15969;DHT22;8085;53.472;9.794;2023-06-05T15:48:06;26.30;1.00
15969;DHT22;8085;53.472;9.794;2023-06-05T15:50:36;26.60;1.00
15969;DHT22;8085;53.472;9.794;2023-06-05T15:53:14;26.40;1.00
15969;DHT22;8085;53.472;9.794;2023-06-05T15:55:41;26.20;1.00
15969;DHT22;8085;53.472;9.794;2023-06-05T15:58:10;26.10;1.00
15969;DHT22;8085;53.472;9.794;2023-06-05T16:00:40;26.10;1.00
15969;DHT22;8085;53.472;9.794;2023-06-05T16:03:07;26.10;1.00
15969;DHT22;8085;53.472;9.794;2023-06-05T16:05:34;26.00;1.00
15969;DHT22;8085;53.472;9.794;2023-06-05T16:08:01;26.00;1.00
15969;DHT22;8085;53.472;9.794;2023-06-05T16:10:31;26.00;1.20
15969;DHT22;8085;53.472;9.794;2023-06-05T16:12:58;25.90;1.80